Time;durP1;ratioP1;P1;durP2;ratioP2;P2;SDS_P1;SDS_P2;PMS_P1;PMS_P2;Temp;Humidity;BMP_temperature;BMP_pressure;BME280_temperature;BME280_humidity;BME280_pressure;Samples;Min_cycle;Max_cycle;Signal;HPM_P1;HPM_P2
2021/04/20 00:01:47;;;;;;;;;;;;;;;;;;5014094;28;19909;-52
2021/04/20 00:04:13;;;;;;;;;;;;;;;;;;5014939;28;20425;-53
2021/04/20 00:06:39;;;;;;;;;;;;;;;;;;5033351;28;20742;-52
2021/04/20 00:09:05;;;;;;;;;;;;;;;;;;5041769;28;19940;-54
2021/04/20 00:11:31;;;;;;;;;;;;;;;;;;5043047;28;19979;-53
2021/04/20 00:13:57;;;;;;;;;;;;;;;;;;5049396;28;19911;-52
2021/04/20 00:16:22;;;;;;;;;;;;;;;;;;5033748;28;19909;-52
2021/04/20 00:18:48;;;;;;;;;;;;;;;;;;5033580;28;19928;-53
2021/04/20 00:21:14;;;;;;;;;;;;;;;;;;5015505;28;19905;-54
2021/04/20 00:23:40;;;;;;;;;;;;;;;;;;5033636;28;19916;-52
2021/04/20 00:26:06;;;;;;;;;;;;;;;;;;5047274;28;19916;-54
2021/04/20 00:28:32;;;;;;;;;;;;;;;;;;5053529;28;19936;-53
2021/04/20 00:30:58;;;;;;;;;;;;;;;;;;5035405;28;19991;-52
2021/04/20 00:33:24;;;;;;;;;;;;;;;;;;5015558;28;19913;-52
2021/04/20 00:35:50;;;;;;;;;;;;;;;;;;5032881;28;19945;-53
2021/04/20 00:38:16;;;;;;;;;;;;;;;;;;5040797;28;19948;-58
2021/04/20 00:40:42;;;;;;;;;;;;;;;;;;5056102;28;19999;-55
2021/04/20 00:43:08;;;;;;;;;;;;;;;;;;5022589;28;19936;-58
2021/04/20 00:45:34;;;;;;;;;;;;;;;;;;5036333;28;19912;-57
2021/04/20 00:48:00;;;;;;;;;;;;;;;;;;5035893;28;19905;-54
2021/04/20 00:50:26;;;;;;;;;;;;;;;;;;5035699;28;20002;-53
2021/04/20 00:52:52;;;;;;;;;;;;;;;;;;5035002;28;19917;-53
2021/04/20 00:55:18;;;;;;;;;;;;;;;;;;5034205;28;19912;-53
2021/04/20 00:57:43;;;;;;;;;;;;;;;;;;5033195;28;20051;-53
2021/04/20 01:00:09;;;;;;;;;;;;;;;;;;5047548;28;19905;-53
2021/04/20 01:02:35;;;;;;;;;;;;;;;;;;5053302;28;19912;-52
2021/04/20 01:05:01;;;;;;;;;;;;;;;;;;5029237;28;19925;-53
2021/04/20 01:07:27;;;;;;;;;;;;;;;;;;5015663;28;20390;-53
2021/04/20 01:09:53;;;;;;;;;;;;;;;;;;5043945;28;19916;-53
2021/04/20 01:12:19;;;;;;;;;;;;;;;;;;5052992;28;20330;-54
2021/04/20 01:14:45;;;;;;;;;;;;;;;;;;5052380;28;19954;-54
2021/04/20 01:17:11;;;;;;;;;;;;;;;;;;5052798;28;19948;-53
2021/04/20 01:19:37;;;;;;;;;;;;;;;;;;5052287;28;19948;-53
2021/04/20 01:22:03;;;;;;;;;;;;;;;;;;5052542;28;19962;-53
2021/04/20 01:24:28;;;;;;;;;;;;;;;;;;5052561;28;19904;-53
2021/04/20 01:26:54;;;;;;;;;;;;;;;;;;5034468;28;20351;-53
2021/04/20 01:29:20;;;;;;;;;;;;;;;;;;5052744;28;19905;-54
2021/04/20 01:31:46;;;;;;;;;;;;;;;;;;5034227;28;20392;-55
2021/04/20 01:34:12;;;;;;;;;;;;;;;;;;5051593;28;19920;-54
2021/04/20 01:36:38;;;;;;;;;;;;;;;;;;5051398;28;19943;-54
2021/04/20 01:39:04;;;;;;;;;;;;;;;;;;5052362;28;19909;-52
2021/04/20 01:41:30;;;;;;;;;;;;;;;;;;5052130;28;19916;-53
2021/04/20 01:43:56;;;;;;;;;;;;;;;;;;5051775;28;19909;-55
2021/04/20 01:46:22;;;;;;;;;;;;;;;;;;5051592;28;19909;-53
2021/04/20 01:48:48;;;;;;;;;;;;;;;;;;5027922;28;20266;-54
2021/04/20 01:51:14;;;;;;;;;;;;;;;;;;5044095;28;20353;-53
2021/04/20 01:53:40;;;;;;;;;;;;;;;;;;5047975;28;20398;-53
2021/04/20 01:56:06;;;;;;;;;;;;;;;;;;5042248;28;19921;-54
2021/04/20 01:58:32;;;;;;;;;;;;;;;;;;5050128;28;20283;-53
2021/04/20 02:00:58;;;;;;;;;;;;;;;;;;5040373;28;19905;-53
2021/04/20 02:03:24;;;;;;;;;;;;;;;;;;5051973;28;19916;-53
2021/04/20 02:05:50;;;;;;;;;;;;;;;;;;5049171;28;19921;-53
2021/04/20 02:08:16;;;;;;;;;;;;;;;;;;5043979;28;19912;-52
2021/04/20 02:10:42;;;;;;;;;;;;;;;;;;5018495;28;19991;-53
2021/04/20 02:13:08;;;;;;;;;;;;;;;;;;5035988;28;19917;-53
2021/04/20 02:15:34;;;;;;;;;;;;;;;;;;5044239;28;20375;-54
2021/04/20 02:18:00;;;;;;;;;;;;;;;;;;5036037;28;19905;-52
2021/04/20 02:20:25;;;;;;;;;;;;;;;;;;5046465;28;20354;-52
2021/04/20 02:22:51;;;;;;;;;;;;;;;;;;5036093;28;20359;-54
2021/04/20 02:25:17;;;;;;;;;;;;;;;;;;5035145;28;19905;-53
2021/04/20 02:27:43;;;;;;;;;;;;;;;;;;5038883;28;19912;-53
2021/04/20 02:30:09;;;;;;;;;;;;;;;;;;5055287;28;19909;-53
2021/04/20 02:32:35;;;;;;;;;;;;;;;;;;5047641;28;20012;-52
2021/04/20 02:35:01;;;;;;;;;;;;;;;;;;5027360;28;20266;-53
2021/04/20 02:37:27;;;;;;;;;;;;;;;;;;5018358;28;19909;-53
2021/04/20 02:39:53;;;;;;;;;;;;;;;;;;5035711;28;19912;-52
2021/04/20 02:42:19;;;;;;;;;;;;;;;;;;5035608;28;19928;-52
2021/04/20 02:44:45;;;;;;;;;;;;;;;;;;5038726;28;19904;-52
2021/04/20 02:47:11;;;;;;;;;;;;;;;;;;5055406;28;19912;-52
2021/04/20 02:49:38;;;;;;;;;;;;;;;;;;5047630;28;19905;-52
2021/04/20 02:52:04;;;;;;;;;;;;;;;;;;5035001;28;19913;-54
2021/04/20 02:54:30;;;;;;;;;;;;;;;;;;5035469;28;19905;-53
2021/04/20 02:56:56;;;;;;;;;;;;;;;;;;5035421;28;20412;-55
2021/04/20 02:59:22;;;;;;;;;;;;;;;;;;5035203;28;20306;-55
2021/04/20 03:01:47;;;;;;;;;;;;;;;;;;5034996;28;20347;-53
2021/04/20 03:04:13;;;;;;;;;;;;;;;;;;5035076;28;19935;-54
2021/04/20 03:06:39;;;;;;;;;;;;;;;;;;5034911;28;19974;-53
2021/04/20 03:09:05;;;;;;;;;;;;;;;;;;5033670;28;19909;-53
2021/04/20 03:11:31;;;;;;;;;;;;;;;;;;5034576;28;19920;-53
2021/04/20 03:13:57;;;;;;;;;;;;;;;;;;5039710;28;19905;-52
2021/04/20 03:16:23;;;;;;;;;;;;;;;;;;5047033;28;20262;-53
2021/04/20 03:18:49;;;;;;;;;;;;;;;;;;5046725;28;19905;-52
2021/04/20 03:21:15;;;;;;;;;;;;;;;;;;5035838;28;19909;-54
2021/04/20 03:23:41;;;;;;;;;;;;;;;;;;5034637;28;20310;-53
2021/04/20 03:26:07;;;;;;;;;;;;;;;;;;5034566;28;20367;-53
2021/04/20 03:28:33;;;;;;;;;;;;;;;;;;5036267;28;20380;-53
2021/04/20 03:30:59;;;;;;;;;;;;;;;;;;5054603;28;19911;-55
2021/04/20 03:33:25;;;;;;;;;;;;;;;;;;5037207;28;19916;-53
2021/04/20 03:35:51;;;;;;;;;;;;;;;;;;5032777;28;19956;-57
2021/04/20 03:38:17;;;;;;;;;;;;;;;;;;5032932;28;19941;-52
2021/04/20 03:40:43;;;;;;;;;;;;;;;;;;5043586;28;19967;-53
2021/04/20 03:43:09;;;;;;;;;;;;;;;;;;5044272;28;19978;-53
2021/04/20 03:45:35;;;;;;;;;;;;;;;;;;5048476;28;20394;-54
2021/04/20 03:48:01;;;;;;;;;;;;;;;;;;5038908;28;19950;-54
2021/04/20 03:50:26;;;;;;;;;;;;;;;;;;5046677;28;20259;-53
2021/04/20 03:52:52;;;;;;;;;;;;;;;;;;5033854;28;19917;-55
2021/04/20 03:55:18;;;;;;;;;;;;;;;;;;5034025;28;19912;-54
2021/04/20 03:57:45;;;;;;;;;;;;;;;;;;5047003;28;19912;-53
2021/04/20 04:00:10;;;;;;;;;;;;;;;;;;5034641;28;19905;-54
2021/04/20 04:02:36;;;;;;;;;;;;;;;;;;5034355;28;19905;-54
2021/04/20 04:05:02;;;;;;;;;;;;;;;;;;5034096;28;20302;-54
2021/04/20 04:07:28;;;;;;;;;;;;;;;;;;5033785;28;20370;-54
2021/04/20 04:09:54;;;;;;;;;;;;;;;;;;5033445;28;19909;-54
2021/04/20 04:12:20;;;;;;;;;;;;;;;;;;5033630;28;19921;-53
2021/04/20 04:14:46;;;;;;;;;;;;;;;;;;5034180;28;19911;-58
2021/04/20 04:17:12;;;;;;;;;;;;;;;;;;5033757;28;19909;-56
2021/04/20 04:19:38;;;;;;;;;;;;;;;;;;5034415;28;19905;-61
2021/04/20 04:22:04;;;;;;;;;;;;;;;;;;5047913;28;19916;-55
2021/04/20 04:24:30;;;;;;;;;;;;;;;;;;5035562;28;19959;-61
2021/04/20 04:26:56;;;;;;;;;;;;;;;;;;5053482;28;19904;-59
2021/04/20 04:29:24;;;;;;;;;;;;;;;;;;5053125;28;20107;-62
2021/04/20 04:31:50;;;;;;;;;;;;;;;;;;5026254;28;19964;-60
2021/04/20 04:34:16;;;;;;;;;;;;;;;;;;5040230;28;19924;-60
2021/04/20 04:36:42;;;;;;;;;;;;;;;;;;5053406;28;19963;-59
2021/04/20 04:39:08;;;;;;;;;;;;;;;;;;5053934;28;19915;-61
2021/04/20 04:41:34;;;;;;;;;;;;;;;;;;5053926;28;19904;-56
2021/04/20 04:44:00;;;;;;;;;;;;;;;;;;5053193;28;19908;-59
2021/04/20 04:46:26;;;;;;;;;;;;;;;;;;5053065;28;19958;-53
2021/04/20 04:48:52;;;;;;;;;;;;;;;;;;5046600;28;19909;-58
2021/04/20 04:51:18;;;;;;;;;;;;;;;;;;5041815;28;19916;-56
2021/04/20 04:53:44;;;;;;;;;;;;;;;;;;5053665;28;19915;-60
2021/04/20 04:56:10;;;;;;;;;;;;;;;;;;5053022;28;19905;-57
2021/04/20 04:58:36;;;;;;;;;;;;;;;;;;5050521;28;19909;-59
2021/04/20 05:01:01;;;;;;;;;;;;;;;;;;5032670;28;20347;-60
2021/04/20 05:03:27;;;;;;;;;;;;;;;;;;5032675;28;20347;-60
2021/04/20 05:05:54;;;;;;;;;;;;;;;;;;5024919;28;19924;-59
2021/04/20 05:08:20;;;;;;;;;;;;;;;;;;5032872;28;19912;-60
2021/04/20 05:10:46;;;;;;;;;;;;;;;;;;5032726;28;19909;-60
2021/04/20 05:13:11;;;;;;;;;;;;;;;;;;5032959;28;20011;-60
2021/04/20 05:15:37;;;;;;;;;;;;;;;;;;5032339;28;20074;-59
2021/04/20 05:18:03;;;;;;;;;;;;;;;;;;5033079;28;20445;-59
2021/04/20 05:20:29;;;;;;;;;;;;;;;;;;5032962;28;20263;-60
2021/04/20 05:22:55;;;;;;;;;;;;;;;;;;5033387;28;20335;-57
2021/04/20 05:25:22;;;;;;;;;;;;;;;;;;5032581;28;19912;-60
2021/04/20 05:27:48;;;;;;;;;;;;;;;;;;5032369;28;19905;-55
2021/04/20 05:30:14;;;;;;;;;;;;;;;;;;5033060;28;19916;-60
2021/04/20 05:32:40;;;;;;;;;;;;;;;;;;5032593;28;19920;-50
2021/04/20 05:35:06;;;;;;;;;;;;;;;;;;5032724;28;19962;-55
2021/04/20 05:37:32;;;;;;;;;;;;;;;;;;5032345;28;19913;-60
2021/04/20 05:39:58;;;;;;;;;;;;;;;;;;5035161;28;19904;-60
2021/04/20 05:42:24;;;;;;;;;;;;;;;;;;5039543;28;19905;-61
2021/04/20 05:44:50;;;;;;;;;;;;;;;;;;5040323;28;20319;-59
2021/04/20 05:47:15;;;;;;;;;;;;;;;;;;5038985;28;19905;-60
2021/04/20 05:49:41;;;;;;;;;;;;;;;;;;5039483;28;19912;-60
2021/04/20 05:52:07;;;;;;;;;;;;;;;;;;5038908;28;19913;-60
2021/04/20 05:54:33;;;;;;;;;;;;;;;;;;5039704;28;19915;-61
2021/04/20 05:57:00;;;;;;;;;;;;;;;;;;5021882;28;19911;-54
2021/04/20 05:59:26;;;;;;;;;;;;;;;;;;5056010;28;19991;-56
2021/04/20 06:01:51;;;;;;;;;;;;;;;;;;5058990;28;19938;-57
2021/04/20 06:04:17;;;;;;;;;;;;;;;;;;5058745;28;20355;-60
2021/04/20 06:06:43;;;;;;;;;;;;;;;;;;5058733;28;19975;-55
2021/04/20 06:09:09;;;;;;;;;;;;;;;;;;5038362;28;20050;-56
2021/04/20 06:11:35;;;;;;;;;;;;;;;;;;5038288;28;20007;-56
2021/04/20 06:14:01;;;;;;;;;;;;;;;;;;5043813;28;19927;-55
2021/04/20 06:16:27;;;;;;;;;;;;;;;;;;5049784;28;19905;-56
2021/04/20 06:18:53;;;;;;;;;;;;;;;;;;5051033;28;20350;-53
2021/04/20 06:21:22;;;;;;;;;;;;;;;;;;5058852;28;19911;-56
2021/04/20 06:23:48;;;;;;;;;;;;;;;;;;5058451;28;20362;-56
2021/04/20 06:26:14;;;;;;;;;;;;;;;;;;5038591;28;19967;-56
2021/04/20 06:28:40;;;;;;;;;;;;;;;;;;5057774;28;19949;-53
2021/04/20 06:31:07;;;;;;;;;;;;;;;;;;5018471;28;19920;-55
2021/04/20 06:33:33;;;;;;;;;;;;;;;;;;5038550;28;19912;-56
2021/04/20 06:35:59;;;;;;;;;;;;;;;;;;5038548;28;19919;-55
2021/04/20 06:38:25;;;;;;;;;;;;;;;;;;5030963;28;19908;-56
2021/04/20 06:40:52;;;;;;;;;;;;;;;;;;5031717;28;20003;-56
2021/04/20 06:43:18;;;;;;;;;;;;;;;;;;5038632;28;20267;-56
2021/04/20 06:45:44;;;;;;;;;;;;;;;;;;5058384;28;20018;-56
2021/04/20 06:48:10;;;;;;;;;;;;;;;;;;5058378;28;19909;-56
2021/04/20 06:50:36;;;;;;;;;;;;;;;;;;5058545;28;19904;-58
2021/04/20 06:53:02;;;;;;;;;;;;;;;;;;5055571;28;20330;-56
2021/04/20 06:55:28;;;;;;;;;;;;;;;;;;5055392;28;19905;-55
2021/04/20 06:57:54;;;;;;;;;;;;;;;;;;5037301;28;20003;-58
2021/04/20 07:00:20;;;;;;;;;;;;;;;;;;5037595;28;20462;-56
2021/04/20 07:02:46;;;;;;;;;;;;;;;;;;5032086;28;19956;-56
2021/04/20 07:05:12;;;;;;;;;;;;;;;;;;5034686;28;20318;-55
2021/04/20 07:07:38;;;;;;;;;;;;;;;;;;5036201;28;20279;-56
2021/04/20 07:10:04;;;;;;;;;;;;;;;;;;5039109;28;19909;-55
2021/04/20 07:12:30;;;;;;;;;;;;;;;;;;5023733;28;19971;-56
2021/04/20 07:14:56;;;;;;;;;;;;;;;;;;5016171;28;19909;-57
2021/04/20 07:17:24;;;;;;;;;;;;;;;;;;5026627;28;20323;-53
2021/04/20 07:19:49;;;;;;;;;;;;;;;;;;5018235;28;19917;-57
2021/04/20 07:22:15;;;;;;;;;;;;;;;;;;5018860;28;19909;-56
2021/04/20 07:24:41;;;;;;;;;;;;;;;;;;5016011;28;19913;-57
2021/04/20 07:27:07;;;;;;;;;;;;;;;;;;5017192;28;19927;-56
2021/04/20 07:29:33;;;;;;;;;;;;;;;;;;5013575;28;20003;-56
2021/04/20 07:31:59;;;;;;;;;;;;;;;;;;5015199;28;20020;-54
2021/04/20 07:34:26;;;;;;;;;;;;;;;;;;5005373;28;19917;-52
2021/04/20 07:36:56;;;;;;;;;;;;;;;;;;5012798;28;19913;-53
2021/04/20 07:39:25;;;;;;;;;;;;;;;;;;5028064;28;19913;-53
2021/04/20 07:41:51;;;;;;;;;;;;;;;;;;5025441;28;19970;-53
2021/04/20 07:44:17;;;;;;;;;;;;;;;;;;5006423;28;19913;-53
2021/04/20 07:46:43;;;;;;;;;;;;;;;;;;5021381;28;19913;-53
2021/04/20 07:49:09;;;;;;;;;;;;;;;;;;5046920;28;19915;-59
2021/04/20 07:51:35;;;;;;;;;;;;;;;;;;5039519;28;19913;-60
2021/04/20 07:54:01;;;;;;;;;;;;;;;;;;5014045;28;19914;-55
2021/04/20 07:56:28;;;;;;;;;;;;;;;;;;5021322;28;19913;-57
2021/04/20 07:58:53;;;;;;;;;;;;;;;;;;5029581;28;19916;-58
2021/04/20 08:01:20;;;;;;;;;;;;;;;;;;5028097;28;20351;-54
2021/04/20 08:03:46;;;;;;;;;;;;;;;;;;5029842;28;20347;-52
2021/04/20 08:06:11;;;;;;;;;;;;;;;;;;5025998;28;19925;-53
2021/04/20 08:08:37;;;;;;;;;;;;;;;;;;5029715;28;20287;-57
2021/04/20 08:11:04;;;;;;;;;;;;;;;;;;5014587;28;19913;-56
2021/04/20 08:13:29;;;;;;;;;;;;;;;;;;5015177;28;19913;-58
2021/04/20 08:15:56;;;;;;;;;;;;;;;;;;5041675;28;19908;-58
2021/04/20 08:18:21;;;;;;;;;;;;;;;;;;5042040;28;20013;-57
2021/04/20 08:20:47;;;;;;;;;;;;;;;;;;5016555;28;19948;-58
2021/04/20 08:23:13;;;;;;;;;;;;;;;;;;5013081;28;19999;-57
2021/04/20 08:25:39;;;;;;;;;;;;;;;;;;5028050;28;20343;-56
2021/04/20 08:28:06;;;;;;;;;;;;;;;;;;5025481;28;19913;-59
2021/04/20 08:30:31;;;;;;;;;;;;;;;;;;5014432;28;20374;-58
2021/04/20 08:32:57;;;;;;;;;;;;;;;;;;5010565;28;19921;-53
2021/04/20 08:35:23;;;;;;;;;;;;;;;;;;5014335;28;19924;-54
2021/04/20 08:37:49;;;;;;;;;;;;;;;;;;5013110;28;19921;-56
2021/04/20 08:40:15;;;;;;;;;;;;;;;;;;5015091;28;19905;-57
2021/04/20 08:42:41;;;;;;;;;;;;;;;;;;5023260;28;19931;-52
2021/04/20 08:45:07;;;;;;;;;;;;;;;;;;5039378;28;19909;-53
2021/04/20 08:47:33;;;;;;;;;;;;;;;;;;5040761;28;20418;-55
2021/04/20 08:49:59;;;;;;;;;;;;;;;;;;5028373;28;19963;-56
2021/04/20 08:52:25;;;;;;;;;;;;;;;;;;5032685;28;19924;-55
2021/04/20 08:54:51;;;;;;;;;;;;;;;;;;5030817;28;20270;-56
2021/04/20 08:57:17;;;;;;;;;;;;;;;;;;5029949;28;19912;-53
2021/04/20 08:59:43;;;;;;;;;;;;;;;;;;5029979;28;19933;-57
2021/04/20 09:02:09;;;;;;;;;;;;;;;;;;5030366;28;19909;-55
2021/04/20 09:04:35;;;;;;;;;;;;;;;;;;5021882;28;20417;-57
2021/04/20 09:07:01;;;;;;;;;;;;;;;;;;5030045;28;19912;-56
2021/04/20 09:09:27;;;;;;;;;;;;;;;;;;5030210;28;20267;-58
2021/04/20 09:11:53;;;;;;;;;;;;;;;;;;5030650;28;20359;-59
2021/04/20 09:14:19;;;;;;;;;;;;;;;;;;5014049;28;19916;-58
2021/04/20 09:16:45;;;;;;;;;;;;;;;;;;5014098;28;19908;-59
2021/04/20 09:19:11;;;;;;;;;;;;;;;;;;5011926;28;19909;-58
2021/04/20 09:21:37;;;;;;;;;;;;;;;;;;5013267;28;19913;-58
2021/04/20 09:24:03;;;;;;;;;;;;;;;;;;5010314;28;19989;-57
2021/04/20 09:26:29;;;;;;;;;;;;;;;;;;5014240;28;19909;-56
2021/04/20 09:28:55;;;;;;;;;;;;;;;;;;5020820;28;19928;-57
2021/04/20 09:31:21;;;;;;;;;;;;;;;;;;5029799;28;19964;-58
2021/04/20 09:33:47;;;;;;;;;;;;;;;;;;5033153;28;19917;-57
2021/04/20 09:36:13;;;;;;;;;;;;;;;;;;5011892;28;19924;-50
2021/04/20 09:38:39;;;;;;;;;;;;;;;;;;5027803;28;19909;-52
2021/04/20 09:41:05;;;;;;;;;;;;;;;;;;5025934;28;20403;-54
2021/04/20 09:43:31;;;;;;;;;;;;;;;;;;5027289;28;19904;-52
2021/04/20 09:45:57;;;;;;;;;;;;;;;;;;5034177;28;19996;-58
2021/04/20 09:48:23;;;;;;;;;;;;;;;;;;5037081;28;20008;-55
2021/04/20 09:50:50;;;;;;;;;;;;;;;;;;5039856;28;19960;-55
2021/04/20 09:53:16;;;;;;;;;;;;;;;;;;5046074;28;19923;-55
2021/04/20 09:55:41;;;;;;;;;;;;;;;;;;5037256;28;19999;-57
2021/04/20 09:58:07;;;;;;;;;;;;;;;;;;5045768;28;20004;-52
2021/04/20 10:00:33;;;;;;;;;;;;;;;;;;5034353;28;19916;-53
2021/04/20 10:02:59;;;;;;;;;;;;;;;;;;5029887;28;19955;-55
2021/04/20 10:05:25;;;;;;;;;;;;;;;;;;5029201;28;19920;-59
2021/04/20 10:07:51;;;;;;;;;;;;;;;;;;5033837;28;19908;-54
2021/04/20 10:10:17;;;;;;;;;;;;;;;;;;5046680;28;19908;-53
2021/04/20 10:12:43;;;;;;;;;;;;;;;;;;5045430;28;19921;-55
2021/04/20 10:15:09;;;;;;;;;;;;;;;;;;5040489;28;19913;-54
2021/04/20 10:17:36;;;;;;;;;;;;;;;;;;5015091;28;19974;-55
2021/04/20 10:20:02;;;;;;;;;;;;;;;;;;5012487;28;19913;-60
2021/04/20 10:22:28;;;;;;;;;;;;;;;;;;5013573;28;19940;-57
2021/04/20 10:24:54;;;;;;;;;;;;;;;;;;5015068;28;20489;-60
2021/04/20 10:27:20;;;;;;;;;;;;;;;;;;5019871;28;19909;-57
2021/04/20 10:29:46;;;;;;;;;;;;;;;;;;5024750;28;19905;-58
2021/04/20 10:32:12;;;;;;;;;;;;;;;;;;5032750;28;19920;-59
2021/04/20 10:34:38;;;;;;;;;;;;;;;;;;5009262;28;19909;-58
2021/04/20 10:37:04;;;;;;;;;;;;;;;;;;5041623;28;19913;-57
2021/04/20 10:39:30;;;;;;;;;;;;;;;;;;5047984;28;19916;-62
2021/04/20 10:41:56;;;;;;;;;;;;;;;;;;5015763;28;19920;-56
2021/04/20 10:44:22;;;;;;;;;;;;;;;;;;5023372;28;19913;-57
2021/04/20 10:46:48;;;;;;;;;;;;;;;;;;5023116;28;20010;-58
2021/04/20 10:49:14;;;;;;;;;;;;;;;;;;5026345;28;19940;-57
2021/04/20 10:51:40;;;;;;;;;;;;;;;;;;5026278;28;19949;-58
2021/04/20 10:54:06;;;;;;;;;;;;;;;;;;5015778;28;20343;-57
2021/04/20 10:56:32;;;;;;;;;;;;;;;;;;5016794;28;20303;-58
2021/04/20 10:58:58;;;;;;;;;;;;;;;;;;5017362;28;19917;-60
2021/04/20 11:01:24;;;;;;;;;;;;;;;;;;5017158;28;19955;-58
2021/04/20 11:03:50;;;;;;;;;;;;;;;;;;5021283;28;19917;-58
2021/04/20 11:06:16;;;;;;;;;;;;;;;;;;5016175;28;19984;-58
2021/04/20 11:08:42;;;;;;;;;;;;;;;;;;5016966;28;19906;-60
2021/04/20 11:11:07;;;;;;;;;;;;;;;;;;5015521;28;20322;-58
2021/04/20 11:13:33;;;;;;;;;;;;;;;;;;5017509;28;20012;-58
2021/04/20 11:15:59;;;;;;;;;;;;;;;;;;5017720;28;19912;-58
2021/04/20 11:18:25;;;;;;;;;;;;;;;;;;5016440;28;19996;-57
2021/04/20 11:20:52;;;;;;;;;;;;;;;;;;5017315;28;20378;-58
2021/04/20 11:23:18;;;;;;;;;;;;;;;;;;5018585;28;19905;-58
2021/04/20 11:25:43;;;;;;;;;;;;;;;;;;5018007;28;19911;-59
2021/04/20 11:28:09;;;;;;;;;;;;;;;;;;5030859;28;19917;-58
2021/04/20 11:30:35;;;;;;;;;;;;;;;;;;5029775;28;19919;-58
2021/04/20 11:33:01;;;;;;;;;;;;;;;;;;5026825;28;19917;-58
2021/04/20 11:35:27;;;;;;;;;;;;;;;;;;5016190;28;20012;-59
2021/04/20 11:37:53;;;;;;;;;;;;;;;;;;5015043;28;19913;-57
2021/04/20 11:40:19;;;;;;;;;;;;;;;;;;5015566;28;19912;-58
2021/04/20 11:42:45;;;;;;;;;;;;;;;;;;5015029;28;19992;-58
2021/04/20 11:45:11;;;;;;;;;;;;;;;;;;5017097;28;20004;-59
2021/04/20 11:47:37;;;;;;;;;;;;;;;;;;5016104;28;20328;-58
2021/04/20 11:50:03;;;;;;;;;;;;;;;;;;5019983;28;19916;-59
2021/04/20 11:52:29;;;;;;;;;;;;;;;;;;5016384;28;19999;-58
2021/04/20 11:54:56;;;;;;;;;;;;;;;;;;5014235;28;19955;-59
2021/04/20 11:57:21;;;;;;;;;;;;;;;;;;5016760;28;19909;-58
2021/04/20 11:59:47;;;;;;;;;;;;;;;;;;5015597;28;19992;-58
2021/04/20 12:02:13;;;;;;;;;;;;;;;;;;5014276;28;19914;-58
2021/04/20 12:04:39;;;;;;;;;;;;;;;;;;5014928;28;19909;-58
2021/04/20 12:07:05;;;;;;;;;;;;;;;;;;5033530;28;20286;-57
2021/04/20 12:09:33;;;;;;;;;;;;;;;;;;5034018;28;19905;-58
2021/04/20 12:11:59;;;;;;;;;;;;;;;;;;5033725;28;19909;-58
2021/04/20 12:14:26;;;;;;;;;;;;;;;;;;5033944;28;19913;-59
2021/04/20 12:16:56;;;;;;;;;;;;;;;;;;5033585;28;20352;-58
2021/04/20 12:19:22;;;;;;;;;;;;;;;;;;5033988;28;19905;-58
2021/04/20 12:21:48;;;;;;;;;;;;;;;;;;5033906;28;19911;-58
2021/04/20 12:24:14;;;;;;;;;;;;;;;;;;5033429;28;19905;-58
2021/04/20 12:26:40;;;;;;;;;;;;;;;;;;5020689;28;20318;-57
2021/04/20 12:29:06;;;;;;;;;;;;;;;;;;5017772;28;20001;-57
2021/04/20 12:31:32;;;;;;;;;;;;;;;;;;5015192;28;19909;-58
2021/04/20 12:33:58;;;;;;;;;;;;;;;;;;5015542;28;20290;-56
2021/04/20 12:36:24;;;;;;;;;;;;;;;;;;5014498;28;19913;-61
2021/04/20 12:38:50;;;;;;;;;;;;;;;;;;5014143;28;19926;-57
2021/04/20 12:41:16;;;;;;;;;;;;;;;;;;5012280;28;19909;-58
2021/04/20 12:43:42;;;;;;;;;;;;;;;;;;5015526;28;20364;-59
2021/04/20 12:46:08;;;;;;;;;;;;;;;;;;5017180;28;19905;-57
2021/04/20 12:48:34;;;;;;;;;;;;;;;;;;5013630;28;19967;-61
2021/04/20 12:51:00;;;;;;;;;;;;;;;;;;5013954;28;19963;-58
2021/04/20 12:53:28;;;;;;;;;;;;;;;;;;5015929;28;19913;-58
2021/04/20 12:55:54;;;;;;;;;;;;;;;;;;5021291;28;20393;-58
2021/04/20 12:58:20;;;;;;;;;;;;;;;;;;5021996;28;19908;-57
2021/04/20 13:00:46;;;;;;;;;;;;;;;;;;5038080;28;19916;-59
2021/04/20 13:03:12;;;;;;;;;;;;;;;;;;5018840;28;19912;-59
2021/04/20 13:05:37;;;;;;;;;;;;;;;;;;5013565;28;19924;-58
2021/04/20 13:08:03;;;;;;;;;;;;;;;;;;5017364;28;19914;-58
2021/04/20 13:10:29;;;;;;;;;;;;;;;;;;5013265;28;19912;-58
2021/04/20 13:12:55;;;;;;;;;;;;;;;;;;5013528;28;19913;-58
2021/04/20 13:15:21;;;;;;;;;;;;;;;;;;5012754;28;19967;-57
2021/04/20 13:17:47;;;;;;;;;;;;;;;;;;5015083;28;19968;-57
2021/04/20 13:20:13;;;;;;;;;;;;;;;;;;5016538;28;19928;-58
2021/04/20 13:22:39;;;;;;;;;;;;;;;;;;5013595;28;20355;-58
2021/04/20 13:25:05;;;;;;;;;;;;;;;;;;5014750;28;19916;-58
2021/04/20 13:27:31;;;;;;;;;;;;;;;;;;5016400;28;20131;-58
2021/04/20 13:29:57;;;;;;;;;;;;;;;;;;5012584;28;20366;-57
2021/04/20 13:32:23;;;;;;;;;;;;;;;;;;5017222;28;19921;-58
2021/04/20 13:34:49;;;;;;;;;;;;;;;;;;5014464;28;20248;-57
2021/04/20 13:37:15;;;;;;;;;;;;;;;;;;5015334;28;19916;-57
2021/04/20 13:39:40;;;;;;;;;;;;;;;;;;5013777;28;20255;-58
2021/04/20 13:42:06;;;;;;;;;;;;;;;;;;5024605;28;19909;-58
2021/04/20 13:44:32;;;;;;;;;;;;;;;;;;5014680;28;19905;-58
2021/04/20 13:46:58;;;;;;;;;;;;;;;;;;5015224;28;19913;-58
2021/04/20 13:49:24;;;;;;;;;;;;;;;;;;5015529;28;19909;-58
2021/04/20 13:51:50;;;;;;;;;;;;;;;;;;5014368;28;19976;-59
2021/04/20 13:54:16;;;;;;;;;;;;;;;;;;5033713;28;19975;-58
2021/04/20 13:56:42;;;;;;;;;;;;;;;;;;5033893;28;20371;-58
2021/04/20 13:59:08;;;;;;;;;;;;;;;;;;5036649;28;19951;-57
2021/04/20 14:01:34;;;;;;;;;;;;;;;;;;5036798;28;20375;-58
2021/04/20 14:04:00;;;;;;;;;;;;;;;;;;5018617;28;20479;-57
2021/04/20 14:06:26;;;;;;;;;;;;;;;;;;5043207;28;19920;-58
2021/04/20 14:08:52;;;;;;;;;;;;;;;;;;5045263;28;19951;-57
2021/04/20 14:11:18;;;;;;;;;;;;;;;;;;5035753;28;20326;-57
2021/04/20 14:13:44;;;;;;;;;;;;;;;;;;5018837;28;20331;-58
2021/04/20 14:16:10;;;;;;;;;;;;;;;;;;5028539;28;20317;-58
2021/04/20 14:18:36;;;;;;;;;;;;;;;;;;5034659;28;19909;-58
2021/04/20 14:21:02;;;;;;;;;;;;;;;;;;5025824;28;19916;-58
2021/04/20 14:23:30;;;;;;;;;;;;;;;;;;5025634;28;19920;-57
2021/04/20 14:25:56;;;;;;;;;;;;;;;;;;5015831;28;19905;-58
2021/04/20 14:28:22;;;;;;;;;;;;;;;;;;5019195;28;20369;-60
2021/04/20 14:30:48;;;;;;;;;;;;;;;;;;5015994;28;20264;-57
2021/04/20 14:33:14;;;;;;;;;;;;;;;;;;5020420;28;19940;-57
2021/04/20 14:35:40;;;;;;;;;;;;;;;;;;5016286;28;19909;-59
2021/04/20 14:38:06;;;;;;;;;;;;;;;;;;5015606;28;19909;-57
2021/04/20 14:40:32;;;;;;;;;;;;;;;;;;5022206;28;19916;-57
2021/04/20 14:42:58;;;;;;;;;;;;;;;;;;5017538;28;20005;-56
2021/04/20 14:45:26;;;;;;;;;;;;;;;;;;5020949;28;19999;-57
2021/04/20 14:47:52;;;;;;;;;;;;;;;;;;5015853;28;19947;-57
2021/04/20 14:50:18;;;;;;;;;;;;;;;;;;5019275;28;19949;-57
2021/04/20 14:52:44;;;;;;;;;;;;;;;;;;5015526;28;20004;-57
2021/04/20 14:55:10;;;;;;;;;;;;;;;;;;5035928;28;20450;-57
2021/04/20 14:57:36;;;;;;;;;;;;;;;;;;5054039;28;19999;-57
2021/04/20 15:00:02;;;;;;;;;;;;;;;;;;5047153;28;20000;-57
2021/04/20 15:02:28;;;;;;;;;;;;;;;;;;5019556;28;20009;-56
2021/04/20 15:04:57;;;;;;;;;;;;;;;;;;5008469;28;20007;-57
2021/04/20 15:07:24;;;;;;;;;;;;;;;;;;5041562;28;20397;-57
2021/04/20 15:09:50;;;;;;;;;;;;;;;;;;5030713;28;19908;-57
2021/04/20 15:12:16;;;;;;;;;;;;;;;;;;5033388;28;19920;-58
2021/04/20 15:14:42;;;;;;;;;;;;;;;;;;5037045;28;19905;-58
2021/04/20 15:17:08;;;;;;;;;;;;;;;;;;5034903;28;19905;-58
2021/04/20 15:19:34;;;;;;;;;;;;;;;;;;5038587;28;20374;-58
2021/04/20 15:22:02;;;;;;;;;;;;;;;;;;5034958;28;19905;-58
2021/04/20 15:24:28;;;;;;;;;;;;;;;;;;5039275;28;19951;-58
2021/04/20 15:26:54;;;;;;;;;;;;;;;;;;5036161;28;19906;-56
2021/04/20 15:29:19;;;;;;;;;;;;;;;;;;5034505;28;20323;-59
2021/04/20 15:31:47;;;;;;;;;;;;;;;;;;5037026;28;19913;-59
2021/04/20 15:34:15;;;;;;;;;;;;;;;;;;5034533;28;19916;-59
2021/04/20 15:36:41;;;;;;;;;;;;;;;;;;5034332;28;19923;-59
2021/04/20 15:39:08;;;;;;;;;;;;;;;;;;5034406;28;19992;-59
2021/04/20 15:41:34;;;;;;;;;;;;;;;;;;5029639;28;19909;-58
2021/04/20 15:44:00;;;;;;;;;;;;;;;;;;5026414;28;20354;-59
2021/04/20 15:46:26;;;;;;;;;;;;;;;;;;5034331;28;19912;-60
2021/04/20 15:48:52;;;;;;;;;;;;;;;;;;5036581;28;19912;-59
2021/04/20 15:51:18;;;;;;;;;;;;;;;;;;5017215;28;19999;-60
2021/04/20 15:53:44;;;;;;;;;;;;;;;;;;5015481;28;20322;-61
2021/04/20 15:56:11;;;;;;;;;;;;;;;;;;5013933;28;19913;-59
2021/04/20 15:58:37;;;;;;;;;;;;;;;;;;5014367;28;19920;-57
2021/04/20 16:01:03;;;;;;;;;;;;;;;;;;5020260;28;19909;-55
2021/04/20 16:03:29;;;;;;;;;;;;;;;;;;5038363;28;20378;-56
2021/04/20 16:05:55;;;;;;;;;;;;;;;;;;5029508;28;19924;-55
2021/04/20 16:08:21;;;;;;;;;;;;;;;;;;5041755;28;19909;-56
2021/04/20 16:10:46;;;;;;;;;;;;;;;;;;5033578;28;19905;-56
2021/04/20 16:13:12;;;;;;;;;;;;;;;;;;5033191;28;20359;-57
2021/04/20 16:15:38;;;;;;;;;;;;;;;;;;5033291;28;19988;-57
2021/04/20 16:18:04;;;;;;;;;;;;;;;;;;5034478;28;19948;-56
2021/04/20 16:20:30;;;;;;;;;;;;;;;;;;5032052;28;19905;-58
2021/04/20 16:22:56;;;;;;;;;;;;;;;;;;5033091;28;19916;-59
2021/04/20 16:25:22;;;;;;;;;;;;;;;;;;5032788;28;19912;-56
2021/04/20 16:27:48;;;;;;;;;;;;;;;;;;5046002;28;20007;-56
2021/04/20 16:30:14;;;;;;;;;;;;;;;;;;5049201;28;19917;-55
2021/04/20 16:32:40;;;;;;;;;;;;;;;;;;5033290;28;19979;-57
2021/04/20 16:35:06;;;;;;;;;;;;;;;;;;5033180;28;19913;-61
2021/04/20 16:37:32;;;;;;;;;;;;;;;;;;5033293;28;20004;-56